sensor_id;sensor_type;location;lat;lon;timestamp;pressure;altitude;pressure_sealevel;temperature;humidity
7824;BME280;3957;48.61947800;9.05303100;2023-07-31T00:00:10;96171.28;;;12.31;100.00
7824;BME280;3957;48.61947800;9.05303100;2023-07-31T00:01:12;96164.06;;;12.31;100.00
7824;BME280;3957;48.61947800;9.05303100;2023-07-31T00:02:14;96166.75;;;12.31;100.00
7824;BME280;3957;48.61947800;9.05303100;2023-07-31T00:03:15;96167.75;;;12.37;100.00
7824;BME280;3957;48.61947800;9.05303100;2023-07-31T00:04:17;96166.72;;;12.38;100.00
7824;BME280;3957;48.61947800;9.05303100;2023-07-31T00:05:18;96166.53;;;12.33;100.00
7824;BME280;3957;48.61947800;9.05303100;2023-07-31T00:06:20;96167.16;;;12.28;100.00
7824;BME280;3957;48.61947800;9.05303100;2023-07-31T00:07:22;96162.81;;;12.27;100.00
7824;BME280;3957;48.61947800;9.05303100;2023-07-31T00:08:23;96166.13;;;12.29;100.00
7824;BME280;3957;48.61947800;9.05303100;2023-07-31T00:09:25;96168.41;;;12.25;100.00
7824;BME280;3957;48.61947800;9.05303100;2023-07-31T00:10:27;96162.63;;;12.22;100.00
7824;BME280;3957;48.61947800;9.05303100;2023-07-31T00:11:28;96164.31;;;12.16;100.00
7824;BME280;3957;48.61947800;9.05303100;2023-07-31T00:12:30;96166.81;;;12.11;100.00
7824;BME280;3957;48.61947800;9.05303100;2023-07-31T00:13:31;96164.94;;;12.12;100.00
7824;BME280;3957;48.61947800;9.05303100;2023-07-31T00:14:33;96162.88;;;12.14;100.00
7824;BME280;3957;48.61947800;9.05303100;2023-07-31T00:15:34;96164.53;;;12.15;100.00
7824;BME280;3957;48.61947800;9.05303100;2023-07-31T00:16:36;96174.22;;;12.16;100.00
7824;BME280;3957;48.61947800;9.05303100;2023-07-31T00:17:38;96168.66;;;12.17;100.00
7824;BME280;3957;48.61947800;9.05303100;2023-07-31T00:18:39;96171.09;;;12.25;100.00
7824;BME280;3957;48.61947800;9.05303100;2023-07-31T00:19:41;96167.78;;;12.23;100.00
7824;BME280;3957;48.61947800;9.05303100;2023-07-31T00:20:42;96176.69;;;12.24;100.00
7824;BME280;3957;48.61947800;9.05303100;2023-07-31T00:21:44;96176.06;;;12.22;100.00
7824;BME280;3957;48.61947800;9.05303100;2023-07-31T00:22:45;96174.59;;;12.26;100.00
7824;BME280;3957;48.61947800;9.05303100;2023-07-31T00:23:47;96180.38;;;12.23;100.00
7824;BME280;3957;48.61947800;9.05303100;2023-07-31T00:24:49;96183.28;;;12.21;100.00
7824;BME280;3957;48.61947800;9.05303100;2023-07-31T00:25:50;96177.31;;;12.19;100.00
7824;BME280;3957;48.61947800;9.05303100;2023-07-31T00:26:52;96179.81;;;12.14;100.00
7824;BME280;3957;48.61947800;9.05303100;2023-07-31T00:27:53;96181.66;;;12.14;100.00
7824;BME280;3957;48.61947800;9.05303100;2023-07-31T00:28:55;96177.94;;;12.08;100.00
7824;BME280;3957;48.61947800;9.05303100;2023-07-31T00:29:57;96180.03;;;12.13;100.00
7824;BME280;3957;48.61947800;9.05303100;2023-07-31T00:30:59;96176.91;;;12.16;100.00
7824;BME280;3957;48.61947800;9.05303100;2023-07-31T00:32:01;96181.84;;;12.19;100.00
7824;BME280;3957;48.61947800;9.05303100;2023-07-31T00:33:02;96173.78;;;12.19;100.00
7824;BME280;3957;48.61947800;9.05303100;2023-07-31T00:34:04;96172.34;;;12.16;100.00
7824;BME280;3957;48.61947800;9.05303100;2023-07-31T00:35:09;96168.88;;;12.16;100.00
7824;BME280;3957;48.61947800;9.05303100;2023-07-31T00:36:10;96173.41;;;12.15;100.00
7824;BME280;3957;48.61947800;9.05303100;2023-07-31T00:37:12;96171.97;;;12.13;100.00
7824;BME280;3957;48.61947800;9.05303100;2023-07-31T00:38:15;96177.75;;;12.10;100.00
7824;BME280;3957;48.61947800;9.05303100;2023-07-31T00:39:17;96175.06;;;12.10;100.00
7824;BME280;3957;48.61947800;9.05303100;2023-07-31T00:40:19;96173.03;;;12.05;100.00
7824;BME280;3957;48.61947800;9.05303100;2023-07-31T00:41:20;96172.59;;;12.01;100.00
7824;BME280;3957;48.61947800;9.05303100;2023-07-31T00:42:24;96167.66;;;11.98;100.00
7824;BME280;3957;48.61947800;9.05303100;2023-07-31T00:43:26;96173.03;;;11.98;100.00
7824;BME280;3957;48.61947800;9.05303100;2023-07-31T00:44:27;96172.81;;;11.93;100.00
7824;BME280;3957;48.61947800;9.05303100;2023-07-31T00:45:29;96175.91;;;11.90;100.00
7824;BME280;3957;48.61947800;9.05303100;2023-07-31T00:46:31;96182.28;;;11.89;100.00
7824;BME280;3957;48.61947800;9.05303100;2023-07-31T00:47:33;96162.13;;;11.86;100.00
7824;BME280;3957;48.61947800;9.05303100;2023-07-31T00:48:35;96174.09;;;11.84;100.00
7824;BME280;3957;48.61947800;9.05303100;2023-07-31T00:49:37;96166.25;;;11.82;100.00
7824;BME280;3957;48.61947800;9.05303100;2023-07-31T00:50:39;96172.00;;;11.79;100.00
7824;BME280;3957;48.61947800;9.05303100;2023-07-31T00:51:40;96163.38;;;11.77;100.00
7824;BME280;3957;48.61947800;9.05303100;2023-07-31T00:52:42;96164.19;;;11.78;100.00
7824;BME280;3957;48.61947800;9.05303100;2023-07-31T00:53:44;96163.56;;;11.76;100.00
7824;BME280;3957;48.61947800;9.05303100;2023-07-31T00:54:46;96159.25;;;11.74;100.00
7824;BME280;3957;48.61947800;9.05303100;2023-07-31T00:55:48;96162.56;;;11.70;100.00
7824;BME280;3957;48.61947800;9.05303100;2023-07-31T00:56:50;96157.00;;;11.71;100.00
7824;BME280;3957;48.61947800;9.05303100;2023-07-31T00:57:56;96158.66;;;11.72;100.00
7824;BME280;3957;48.61947800;9.05303100;2023-07-31T00:58:59;96158.00;;;11.70;100.00
7824;BME280;3957;48.61947800;9.05303100;2023-07-31T01:00:01;96166.66;;;11.79;100.00
7824;BME280;3957;48.61947800;9.05303100;2023-07-31T01:01:03;96167.28;;;11.74;100.00
7824;BME280;3957;48.61947800;9.05303100;2023-07-31T01:02:05;96166.69;;;11.72;100.00
7824;BME280;3957;48.61947800;9.05303100;2023-07-31T01:03:07;96164.19;;;11.71;100.00
7824;BME280;3957;48.61947800;9.05303100;2023-07-31T01:04:09;96169.75;;;11.69;100.00
7824;BME280;3957;48.61947800;9.05303100;2023-07-31T01:05:11;96161.13;;;11.67;100.00
7824;BME280;3957;48.61947800;9.05303100;2023-07-31T01:06:32;96164.63;;;11.68;100.00
7824;BME280;3957;48.61947800;9.05303100;2023-07-31T01:07:47;96157.59;;;11.73;100.00
7824;BME280;3957;48.61947800;9.05303100;2023-07-31T01:09:07;96162.56;;;11.70;100.00
7824;BME280;3957;48.61947800;9.05303100;2023-07-31T01:10:20;96162.13;;;11.73;100.00
7824;BME280;3957;48.61947800;9.05303100;2023-07-31T01:11:28;96160.06;;;11.75;100.00
7824;BME280;3957;48.61947800;9.05303100;2023-07-31T01:12:31;96153.25;;;11.79;100.00
7824;BME280;3957;48.61947800;9.05303100;2023-07-31T01:13:33;96154.47;;;11.83;100.00
7824;BME280;3957;48.61947800;9.05303100;2023-07-31T01:14:35;96150.38;;;11.81;100.00
7824;BME280;3957;48.61947800;9.05303100;2023-07-31T01:15:36;96145.41;;;11.84;100.00
7824;BME280;3957;48.61947800;9.05303100;2023-07-31T01:16:38;96149.94;;;11.84;100.00
7824;BME280;3957;48.61947800;9.05303100;2023-07-31T01:17:43;96142.91;;;11.89;100.00
7824;BME280;3957;48.61947800;9.05303100;2023-07-31T01:18:45;96142.69;;;11.91;100.00
7824;BME280;3957;48.61947800;9.05303100;2023-07-31T01:19:47;96146.25;;;11.85;100.00
7824;BME280;3957;48.61947800;9.05303100;2023-07-31T01:21:03;96146.03;;;11.86;100.00
7824;BME280;3957;48.61947800;9.05303100;2023-07-31T01:26:33;96132.84;;;11.85;100.00
7824;BME280;3957;48.61947800;9.05303100;2023-07-31T01:27:42;96139.03;;;11.79;100.00
7824;BME280;3957;48.61947800;9.05303100;2023-07-31T01:28:49;96132.22;;;11.76;100.00
7824;BME280;3957;48.61947800;9.05303100;2023-07-31T01:30:16;96132.66;;;11.73;100.00
7824;BME280;3957;48.61947800;9.05303100;2023-07-31T01:31:22;96127.06;;;11.74;100.00
7824;BME280;3957;48.61947800;9.05303100;2023-07-31T01:32:28;96131.63;;;11.74;100.00
7824;BME280;3957;48.61947800;9.05303100;2023-07-31T01:33:30;96131.41;;;11.76;100.00
7824;BME280;3957;48.61947800;9.05303100;2023-07-31T01:34:32;96123.59;;;11.74;100.00
7824;BME280;3957;48.61947800;9.05303100;2023-07-31T01:35:34;96121.13;;;11.72;100.00
7824;BME280;3957;48.61947800;9.05303100;2023-07-31T01:36:36;96126.44;;;11.79;100.00
7824;BME280;3957;48.61947800;9.05303100;2023-07-31T01:37:39;96116.13;;;11.76;100.00
7824;BME280;3957;48.61947800;9.05303100;2023-07-31T01:38:40;96119.66;;;11.77;100.00
7824;BME280;3957;48.61947800;9.05303100;2023-07-31T01:39:42;96122.53;;;11.75;100.00
7824;BME280;3957;48.61947800;9.05303100;2023-07-31T01:40:51;96126.25;;;11.81;100.00
7824;BME280;3957;48.61947800;9.05303100;2023-07-31T01:41:53;96117.38;;;11.80;100.00
7824;BME280;3957;48.61947800;9.05303100;2023-07-31T01:42:54;96121.28;;;11.78;100.00
7824;BME280;3957;48.61947800;9.05303100;2023-07-31T01:43:56;96121.91;;;11.80;100.00
7824;BME280;3957;48.61947800;9.05303100;2023-07-31T01:44:58;96123.13;;;11.84;100.00
7824;BME280;3957;48.61947800;9.05303100;2023-07-31T01:45:59;96116.56;;;11.80;100.00
7824;BME280;3957;48.61947800;9.05303100;2023-07-31T01:47:01;96119.81;;;11.82;100.00
7824;BME280;3957;48.61947800;9.05303100;2023-07-31T01:48:02;96113.44;;;11.76;100.00
7824;BME280;3957;48.61947800;9.05303100;2023-07-31T01:49:05;96115.91;;;11.78;100.00
7824;BME280;3957;48.61947800;9.05303100;2023-07-31T01:50:07;96114.69;;;11.73;100.00
7824;BME280;3957;48.61947800;9.05303100;2023-07-31T01:51:10;96115.91;;;11.78;100.00
7824;BME280;3957;48.61947800;9.05303100;2023-07-31T01:52:11;96113.03;;;11.79;100.00
7824;BME280;3957;48.61947800;9.05303100;2023-07-31T01:53:13;96110.56;;;11.78;100.00
7824;BME280;3957;48.61947800;9.05303100;2023-07-31T01:54:15;96108.88;;;11.90;100.00
7824;BME280;3957;48.61947800;9.05303100;2023-07-31T01:55:16;96111.78;;;11.95;100.00
7824;BME280;3957;48.61947800;9.05303100;2023-07-31T01:56:17;96115.47;;;12.01;100.00
7824;BME280;3957;48.61947800;9.05303100;2023-07-31T01:57:19;96105.94;;;12.12;100.00
7824;BME280;3957;48.61947800;9.05303100;2023-07-31T01:58:21;96103.84;;;12.14;100.00
7824;BME280;3957;48.61947800;9.05303100;2023-07-31T01:59:22;96105.53;;;12.08;100.00
7824;BME280;3957;48.61947800;9.05303100;2023-07-31T02:00:24;96102.84;;;12.15;100.00
7824;BME280;3957;48.61947800;9.05303100;2023-07-31T02:01:25;96100.16;;;12.15;100.00
7824;BME280;3957;48.61947800;9.05303100;2023-07-31T02:02:27;96100.34;;;12.20;100.00
7824;BME280;3957;48.61947800;9.05303100;2023-07-31T02:03:28;96100.34;;;12.20;100.00
7824;BME280;3957;48.61947800;9.05303100;2023-07-31T02:04:30;96096.63;;;12.21;100.00
7824;BME280;3957;48.61947800;9.05303100;2023-07-31T02:05:31;96103.63;;;12.22;100.00
7824;BME280;3957;48.61947800;9.05303100;2023-07-31T02:06:33;96103.63;;;12.22;100.00
7824;BME280;3957;48.61947800;9.05303100;2023-07-31T02:07:35;96103.84;;;12.20;100.00
7824;BME280;3957;48.61947800;9.05303100;2023-07-31T02:08:37;96113.13;;;12.18;100.00
7824;BME280;3957;48.61947800;9.05303100;2023-07-31T02:09:38;96107.56;;;12.19;100.00
7824;BME280;3957;48.61947800;9.05303100;2023-07-31T02:10:40;96109.22;;;12.14;100.00
7824;BME280;3957;48.61947800;9.05303100;2023-07-31T02:11:41;96109.44;;;12.12;100.00
7824;BME280;3957;48.61947800;9.05303100;2023-07-31T02:12:43;96106.97;;;12.11;100.00
7824;BME280;3957;48.61947800;9.05303100;2023-07-31T02:13:45;96105.31;;;12.10;100.00
7824;BME280;3957;48.61947800;9.05303100;2023-07-31T02:14:47;96098.69;;;12.19;100.00
7824;BME280;3957;48.61947800;9.05303100;2023-07-31T02:15:48;96098.09;;;12.17;100.00
7824;BME280;3957;48.61947800;9.05303100;2023-07-31T02:16:50;96100.16;;;12.15;100.00
7824;BME280;3957;48.61947800;9.05303100;2023-07-31T02:17:51;96102.00;;;12.14;100.00
7824;BME280;3957;48.61947800;9.05303100;2023-07-31T02:18:53;96098.31;;;12.15;100.00
7824;BME280;3957;48.61947800;9.05303100;2023-07-31T02:19:54;96098.72;;;12.12;100.00
7824;BME280;3957;48.61947800;9.05303100;2023-07-31T02:20:56;96095.66;;;12.08;100.00
7824;BME280;3957;48.61947800;9.05303100;2023-07-31T02:21:58;96096.25;;;12.04;100.00
7824;BME280;3957;48.61947800;9.05303100;2023-07-31T02:22:59;96091.56;;;11.99;100.00
7824;BME280;3957;48.61947800;9.05303100;2023-07-31T02:24:00;96097.72;;;12.00;100.00
7824;BME280;3957;48.61947800;9.05303100;2023-07-31T02:25:02;96092.19;;;11.95;100.00
7824;BME280;3957;48.61947800;9.05303100;2023-07-31T02:26:04;96094.66;;;11.89;100.00
7824;BME280;3957;48.61947800;9.05303100;2023-07-31T02:27:06;96094.66;;;11.89;100.00
7824;BME280;3957;48.61947800;9.05303100;2023-07-31T02:28:07;96086.59;;;11.89;100.00
7824;BME280;3957;48.61947800;9.05303100;2023-07-31T02:29:10;96092.19;;;11.88;100.00
7824;BME280;3957;48.61947800;9.05303100;2023-07-31T02:30:11;96082.06;;;11.90;100.00
7824;BME280;3957;48.61947800;9.05303100;2023-07-31T02:31:13;96085.97;;;11.87;100.00
7824;BME280;3957;48.61947800;9.05303100;2023-07-31T02:32:14;96090.13;;;11.83;100.00
7824;BME280;3957;48.61947800;9.05303100;2023-07-31T02:33:16;96091.78;;;11.84;100.00
7824;BME280;3957;48.61947800;9.05303100;2023-07-31T02:34:17;96082.94;;;11.77;100.00
7824;BME280;3957;48.61947800;9.05303100;2023-07-31T02:35:20;96083.38;;;11.74;100.00
7824;BME280;3957;48.61947800;9.05303100;2023-07-31T02:36:22;96080.69;;;11.74;100.00
7824;BME280;3957;48.61947800;9.05303100;2023-07-31T02:37:23;96078.22;;;11.72;100.00
7824;BME280;3957;48.61947800;9.05303100;2023-07-31T02:38:25;96084.19;;;11.68;100.00
7824;BME280;3957;48.61947800;9.05303100;2023-07-31T02:39:27;96087.06;;;11.73;100.00
7824;BME280;3957;48.61947800;9.05303100;2023-07-31T02:40:29;96086.03;;;11.81;100.00
7824;BME280;3957;48.61947800;9.05303100;2023-07-31T02:41:30;96088.50;;;11.82;100.00
7824;BME280;3957;48.61947800;9.05303100;2023-07-31T02:42:32;96092.22;;;11.81;100.00
7824;BME280;3957;48.61947800;9.05303100;2023-07-31T02:43:33;96081.47;;;11.88;100.00
7824;BME280;3957;48.61947800;9.05303100;2023-07-31T02:44:35;96092.81;;;11.83;100.00
7824;BME280;3957;48.61947800;9.05303100;2023-07-31T02:45:36;96088.28;;;11.84;100.00
7824;BME280;3957;48.61947800;9.05303100;2023-07-31T02:46:38;96084.97;;;11.82;100.00
7824;BME280;3957;48.61947800;9.05303100;2023-07-31T02:47:40;96080.63;;;11.87;100.00
7824;BME280;3957;48.61947800;9.05303100;2023-07-31T02:48:42;96086.19;;;11.86;100.00
7824;BME280;3957;48.61947800;9.05303100;2023-07-31T02:49:43;96077.34;;;11.85;100.00
7824;BME280;3957;48.61947800;9.05303100;2023-07-31T02:50:45;96078.16;;;11.86;100.00
7824;BME280;3957;48.61947800;9.05303100;2023-07-31T02:51:47;96077.13;;;11.87;100.00
7824;BME280;3957;48.61947800;9.05303100;2023-07-31T02:52:48;96078.78;;;11.88;100.00
7824;BME280;3957;48.61947800;9.05303100;2023-07-31T02:53:50;96075.88;;;11.89;100.00
7824;BME280;3957;48.61947800;9.05303100;2023-07-31T02:54:52;96084.16;;;11.95;100.00
7824;BME280;3957;48.61947800;9.05303100;2023-07-31T02:55:53;96082.03;;;12.03;100.00
7824;BME280;3957;48.61947800;9.05303100;2023-07-31T02:56:55;96073.34;;;12.08;100.00
7824;BME280;3957;48.61947800;9.05303100;2023-07-31T02:57:56;96072.94;;;12.11;100.00
7824;BME280;3957;48.61947800;9.05303100;2023-07-31T02:58:59;96069.84;;;12.07;100.00
7824;BME280;3957;48.61947800;9.05303100;2023-07-31T03:00:01;96070.44;;;12.10;100.00
7824;BME280;3957;48.61947800;9.05303100;2023-07-31T03:01:02;96066.31;;;12.14;100.00
7824;BME280;3957;48.61947800;9.05303100;2023-07-31T03:02:04;96070.59;;;12.21;100.00
7824;BME280;3957;48.61947800;9.05303100;2023-07-31T03:03:06;96062.75;;;12.27;100.00
7824;BME280;3957;48.61947800;9.05303100;2023-07-31T03:04:07;96061.31;;;12.24;100.00
7824;BME280;3957;48.61947800;9.05303100;2023-07-31T03:05:09;96064.81;;;12.24;100.00
7824;BME280;3957;48.61947800;9.05303100;2023-07-31T03:06:10;96061.09;;;12.25;100.00
7824;BME280;3957;48.61947800;9.05303100;2023-07-31T03:07:12;96051.78;;;12.28;100.00
7824;BME280;3957;48.61947800;9.05303100;2023-07-31T03:08:13;96064.56;;;12.33;100.00
7824;BME280;3957;48.61947800;9.05303100;2023-07-31T03:09:15;96066.03;;;12.29;100.00
7824;BME280;3957;48.61947800;9.05303100;2023-07-31T03:10:18;96064.72;;;12.45;100.00
7824;BME280;3957;48.61947800;9.05303100;2023-07-31T03:11:19;96061.81;;;12.46;100.00
7824;BME280;3957;48.61947800;9.05303100;2023-07-31T03:12:21;96054.97;;;12.50;100.00
7824;BME280;3957;48.61947800;9.05303100;2023-07-31T03:13:22;96052.94;;;12.46;100.00
7824;BME280;3957;48.61947800;9.05303100;2023-07-31T03:14:24;96057.09;;;12.41;100.00
7824;BME280;3957;48.61947800;9.05303100;2023-07-31T03:15:27;96057.25;;;12.47;100.00
7824;BME280;3957;48.61947800;9.05303100;2023-07-31T03:16:29;96062.84;;;12.45;100.00
7824;BME280;3957;48.61947800;9.05303100;2023-07-31T03:17:30;96053.53;;;12.48;100.00
7824;BME280;3957;48.61947800;9.05303100;2023-07-31T03:18:32;96054.75;;;12.52;100.00
7824;BME280;3957;48.61947800;9.05303100;2023-07-31T03:19:34;96057.59;;;12.57;100.00
7824;BME280;3957;48.61947800;9.05303100;2023-07-31T03:20:35;96065.41;;;12.65;100.00
7824;BME280;3957;48.61947800;9.05303100;2023-07-31T03:21:37;96058.97;;;12.66;100.00
7824;BME280;3957;48.61947800;9.05303100;2023-07-31T03:22:38;96066.34;;;12.78;100.00
7824;BME280;3957;48.61947800;9.05303100;2023-07-31T03:23:40;96066.34;;;12.78;100.00
7824;BME280;3957;48.61947800;9.05303100;2023-07-31T03:24:41;96065.34;;;12.72;100.00
7824;BME280;3957;48.61947800;9.05303100;2023-07-31T03:25:56;96067.19;;;12.71;100.00
7824;BME280;3957;48.61947800;9.05303100;2023-07-31T03:27:02;96067.81;;;12.73;100.00
7824;BME280;3957;48.61947800;9.05303100;2023-07-31T03:28:03;96066.75;;;12.74;100.00
7824;BME280;3957;48.61947800;9.05303100;2023-07-31T03:29:05;96067.38;;;12.76;100.00
7824;BME280;3957;48.61947800;9.05303100;2023-07-31T03:30:07;96068.81;;;12.79;100.00
7824;BME280;3957;48.61947800;9.05303100;2023-07-31T03:31:09;96062.81;;;12.77;100.00
7824;BME280;3957;48.61947800;9.05303100;2023-07-31T03:32:10;96062.44;;;12.73;100.00
7824;BME280;3957;48.61947800;9.05303100;2023-07-31T03:33:12;96056.09;;;12.68;100.00
7824;BME280;3957;48.61947800;9.05303100;2023-07-31T03:34:13;96067.19;;;12.71;100.00
7824;BME280;3957;48.61947800;9.05303100;2023-07-31T03:35:15;96060.41;;;12.69;100.00
7824;BME280;3957;48.61947800;9.05303100;2023-07-31T03:36:17;96056.84;;;12.75;100.00
7824;BME280;3957;48.61947800;9.05303100;2023-07-31T03:37:18;96062.28;;;12.68;100.00
7824;BME280;3957;48.61947800;9.05303100;2023-07-31T03:38:20;96057.72;;;12.69;100.00
7824;BME280;3957;48.61947800;9.05303100;2023-07-31T03:39:21;96055.66;;;12.71;100.00
7824;BME280;3957;48.61947800;9.05303100;2023-07-31T03:40:24;96061.66;;;12.66;100.00
7824;BME280;3957;48.61947800;9.05303100;2023-07-31T03:41:26;96060.84;;;12.66;100.00
7824;BME280;3957;48.61947800;9.05303100;2023-07-31T03:42:27;96060.78;;;12.72;100.00
7824;BME280;3957;48.61947800;9.05303100;2023-07-31T03:43:29;96066.22;;;12.66;100.00
7824;BME280;3957;48.61947800;9.05303100;2023-07-31T03:44:30;96068.69;;;12.67;100.00
7824;BME280;3957;48.61947800;9.05303100;2023-07-31T03:45:32;96060.63;;;12.67;100.00
7824;BME280;3957;48.61947800;9.05303100;2023-07-31T03:46:34;96060.03;;;12.65;100.00
7824;BME280;3957;48.61947800;9.05303100;2023-07-31T03:47:38;96066.84;;;12.68;100.00
7824;BME280;3957;48.61947800;9.05303100;2023-07-31T03:48:39;96074.44;;;12.71;100.00
7824;BME280;3957;48.61947800;9.05303100;2023-07-31T03:49:41;96068.03;;;12.72;100.00
7824;BME280;3957;48.61947800;9.05303100;2023-07-31T03:50:42;96073.19;;;12.73;100.00
7824;BME280;3957;48.61947800;9.05303100;2023-07-31T03:51:44;96069.63;;;12.80;100.00
7824;BME280;3957;48.61947800;9.05303100;2023-07-31T03:52:46;96067.78;;;12.80;100.00
7824;BME280;3957;48.61947800;9.05303100;2023-07-31T03:53:47;96070.00;;;12.83;100.00
7824;BME280;3957;48.61947800;9.05303100;2023-07-31T03:54:49;96069.41;;;12.81;100.00
7824;BME280;3957;48.61947800;9.05303100;2023-07-31T03:55:50;96068.97;;;12.84;100.00
7824;BME280;3957;48.61947800;9.05303100;2023-07-31T03:56:52;96070.59;;;12.85;100.00
7824;BME280;3957;48.61947800;9.05303100;2023-07-31T03:57:53;96074.50;;;12.89;100.00
7824;BME280;3957;48.61947800;9.05303100;2023-07-31T03:58:55;96068.91;;;12.91;100.00
7824;BME280;3957;48.61947800;9.05303100;2023-07-31T03:59:56;96070.34;;;12.93;100.00
7824;BME280;3957;48.61947800;9.05303100;2023-07-31T04:00:58;96071.53;;;12.98;100.00
7824;BME280;3957;48.61947800;9.05303100;2023-07-31T04:01:59;96083.13;;;12.98;100.00
7824;BME280;3957;48.61947800;9.05303100;2023-07-31T04:03:01;96072.75;;;13.02;100.00
7824;BME280;3957;48.61947800;9.05303100;2023-07-31T04:04:03;96073.94;;;13.06;100.00
7824;BME280;3957;48.61947800;9.05303100;2023-07-31T04:05:06;96073.72;;;13.07;100.00
7824;BME280;3957;48.61947800;9.05303100;2023-07-31T04:06:07;96066.50;;;13.08;100.00
7824;BME280;3957;48.61947800;9.05303100;2023-07-31T04:07:09;96075.38;;;13.08;100.00
7824;BME280;3957;48.61947800;9.05303100;2023-07-31T04:08:10;96068.53;;;13.13;100.00
7824;BME280;3957;48.61947800;9.05303100;2023-07-31T04:09:12;96073.44;;;13.16;100.00
7824;BME280;3957;48.61947800;9.05303100;2023-07-31T04:10:13;96074.53;;;13.15;100.00
7824;BME280;3957;48.61947800;9.05303100;2023-07-31T04:11:15;96075.72;;;13.19;100.00
7824;BME280;3957;48.61947800;9.05303100;2023-07-31T04:12:17;96072.38;;;13.23;100.00
7824;BME280;3957;48.61947800;9.05303100;2023-07-31T04:13:18;96070.66;;;13.29;100.00
7824;BME280;3957;48.61947800;9.05303100;2023-07-31T04:14:19;96068.13;;;13.34;100.00
7824;BME280;3957;48.61947800;9.05303100;2023-07-31T04:15:21;96071.22;;;13.38;100.00
7824;BME280;3957;48.61947800;9.05303100;2023-07-31T04:16:22;96065.03;;;13.37;100.00
7824;BME280;3957;48.61947800;9.05303100;2023-07-31T04:17:24;96067.09;;;13.35;100.00
7824;BME280;3957;48.61947800;9.05303100;2023-07-31T04:18:26;96065.03;;;13.37;100.00
7824;BME280;3957;48.61947800;9.05303100;2023-07-31T04:19:27;96065.25;;;13.36;100.00
7824;BME280;3957;48.61947800;9.05303100;2023-07-31T04:20:29;96067.72;;;13.37;100.00
7824;BME280;3957;48.61947800;9.05303100;2023-07-31T04:21:30;96079.03;;;13.39;100.00
7824;BME280;3957;48.61947800;9.05303100;2023-07-31T04:22:32;96067.44;;;13.46;100.00
7824;BME280;3957;48.61947800;9.05303100;2023-07-31T04:23:33;96060.63;;;13.43;100.00
7824;BME280;3957;48.61947800;9.05303100;2023-07-31T04:24:34;96057.47;;;13.46;100.00
7824;BME280;3957;48.61947800;9.05303100;2023-07-31T04:25:36;96063.53;;;13.41;100.00
7824;BME280;3957;48.61947800;9.05303100;2023-07-31T04:26:38;96055.25;;;13.43;100.00
7824;BME280;3957;48.61947800;9.05303100;2023-07-31T04:27:40;96056.50;;;13.40;100.00
7824;BME280;3957;48.61947800;9.05303100;2023-07-31T04:28:41;96053.97;;;13.46;100.00
7824;BME280;3957;48.61947800;9.05303100;2023-07-31T04:29:43;96053.38;;;13.43;100.00
7824;BME280;3957;48.61947800;9.05303100;2023-07-31T04:30:47;96050.50;;;13.45;100.00
7824;BME280;3957;48.61947800;9.05303100;2023-07-31T04:31:51;96058.31;;;13.47;100.00
7824;BME280;3957;48.61947800;9.05303100;2023-07-31T04:32:52;96061.88;;;13.40;100.00
7824;BME280;3957;48.61947800;9.05303100;2023-07-31T04:33:54;96061.06;;;13.40;100.00
7824;BME280;3957;48.61947800;9.05303100;2023-07-31T04:34:56;96062.97;;;13.33;100.00
7824;BME280;3957;48.61947800;9.05303100;2023-07-31T04:35:59;96064.81;;;13.32;100.00
7824;BME280;3957;48.61947800;9.05303100;2023-07-31T04:37:01;96060.50;;;13.31;100.00
7824;BME280;3957;48.61947800;9.05303100;2023-07-31T04:38:03;96061.91;;;13.34;100.00
7824;BME280;3957;48.61947800;9.05303100;2023-07-31T04:39:04;96064.22;;;13.37;100.00
7824;BME280;3957;48.61947800;9.05303100;2023-07-31T04:40:06;96067.72;;;13.37;100.00
7824;BME280;3957;48.61947800;9.05303100;2023-07-31T04:41:08;96075.50;;;13.46;100.00
7824;BME280;3957;48.61947800;9.05303100;2023-07-31T04:42:10;96071.44;;;13.36;100.00
7824;BME280;3957;48.61947800;9.05303100;2023-07-31T04:43:11;96068.28;;;13.39;100.00
7824;BME280;3957;48.61947800;9.05303100;2023-07-31T04:44:14;96068.75;;;13.36;100.00
7824;BME280;3957;48.61947800;9.05303100;2023-07-31T04:45:15;96073.31;;;13.36;100.00
7824;BME280;3957;48.61947800;9.05303100;2023-07-31T04:46:17;96062.91;;;13.39;100.00
7824;BME280;3957;48.61947800;9.05303100;2023-07-31T04:47:19;96063.53;;;13.41;100.00
7824;BME280;3957;48.61947800;9.05303100;2023-07-31T04:48:21;96063.53;;;13.41;100.00
7824;BME280;3957;48.61947800;9.05303100;2023-07-31T04:49:22;96064.56;;;13.40;100.00
7824;BME280;3957;48.61947800;9.05303100;2023-07-31T04:50:24;96068.91;;;13.41;100.00
7824;BME280;3957;48.61947800;9.05303100;2023-07-31T04:51:25;96064.56;;;13.40;100.00
7824;BME280;3957;48.61947800;9.05303100;2023-07-31T04:52:27;96062.09;;;13.39;100.00
7824;BME280;3957;48.61947800;9.05303100;2023-07-31T04:53:28;96066.00;;;13.43;100.00
7824;BME280;3957;48.61947800;9.05303100;2023-07-31T04:54:30;96067.88;;;13.42;100.00
7824;BME280;3957;48.61947800;9.05303100;2023-07-31T04:55:32;96062.06;;;13.46;100.00
7824;BME280;3957;48.61947800;9.05303100;2023-07-31T04:56:33;96067.66;;;13.44;100.00
7824;BME280;3957;48.61947800;9.05303100;2023-07-31T04:57:35;96066.63;;;13.45;100.00
7824;BME280;3957;48.61947800;9.05303100;2023-07-31T04:58:36;96064.06;;;13.50;100.00